Time;durP1;ratioP1;P1;durP2;ratioP2;P2;SDS_P1;SDS_P2;PMS_P1;PMS_P2;Temp;Humidity;BMP_temperature;BMP_pressure;BME280_temperature;BME280_humidity;BME280_pressure;Samples;Min_cycle;Max_cycle;Signal;HPM_P1;HPM_P2
2022/05/27 00:01:13;;;;;;;0.00;0.00;;;13.40;99.90;;;;;;5039590;28;20389;-80
2022/05/27 00:03:39;;;;;;;0.00;0.00;;;13.40;99.90;;;;;;5056083;28;20114;-79
2022/05/27 00:06:05;;;;;;;0.13;0.13;;;13.30;99.90;;;;;;5056221;28;20048;-80
2022/05/27 00:08:31;;;;;;;0.00;0.00;;;13.40;99.90;;;;;;5038820;28;20048;-79
2022/05/27 00:10:59;;;;;;;0.00;0.00;;;13.30;99.90;;;;;;5055395;28;20045;-79
2022/05/27 00:13:24;;;;;;;0.00;0.00;;;13.30;99.90;;;;;;5055496;28;20045;-79
2022/05/27 00:15:50;;;;;;;0.00;0.00;;;13.30;99.90;;;;;;5055281;28;20392;-79
2022/05/27 00:18:16;;;;;;;0.00;0.00;;;13.30;99.90;;;;;;5055116;28;20374;-79
2022/05/27 00:20:42;;;;;;;0.00;0.00;;;13.30;99.90;;;;;;5055316;28;20374;-80
2022/05/27 00:23:08;;;;;;;0.00;0.00;;;13.30;99.90;;;;;;5055240;28;20048;-79
2022/05/27 00:25:33;;;;;;;0.00;0.00;;;13.30;99.90;;;;;;5038564;28;20091;-79
2022/05/27 00:27:59;;;;;;;0.03;0.03;;;13.30;99.90;;;;;;5055218;28;20076;-79
2022/05/27 00:30:26;;;;;;;0.00;0.00;;;13.30;99.90;;;;;;5037936;28;20408;-79
2022/05/27 00:32:53;;;;;;;0.00;0.00;;;13.30;99.90;;;;;;5038461;28;20088;-79
2022/05/27 00:35:18;;;;;;;0.00;0.00;;;13.30;99.90;;;;;;5055275;28;20439;-79
2022/05/27 00:37:44;;;;;;;0.00;0.00;;;13.20;99.90;;;;;;5055142;28;20045;-79
2022/05/27 00:40:11;;;;;;;0.10;0.00;;;13.20;99.90;;;;;;5038204;28;20076;-79
2022/05/27 00:42:41;;;;;;;0.00;0.00;;;13.20;99.90;;;;;;5054885;28;20049;-79
2022/05/27 00:45:15;;;;;;;0.00;0.00;;;13.20;99.90;;;;;;5038129;28;20071;-79
2022/05/27 00:47:42;;;;;;;0.00;0.00;;;13.20;99.90;;;;;;5038497;28;20048;-79
2022/05/27 00:50:11;;;;;;;0.63;0.22;;;13.10;99.90;;;;;;5038221;28;20401;-79
2022/05/27 00:52:38;;;;;;;0.00;0.00;;;13.20;99.90;;;;;;5055121;28;20404;-79
2022/05/27 00:55:06;;;;;;;0.05;0.05;;;13.20;99.90;;;;;;5054688;28;20040;-79
2022/05/27 00:57:59;;;;;;;0.00;0.00;;;13.20;99.90;;;;;;5054103;28;20065;-78
2022/05/27 01:00:25;;;;;;;0.00;0.00;;;13.20;99.90;;;;;;5036837;28;20390;-79
2022/05/27 01:02:54;;;;;;;0.00;0.00;;;13.20;99.90;;;;;;5020436;28;20202;-78
2022/05/27 01:05:23;;;;;;;0.00;0.00;;;13.20;99.90;;;;;;5020287;28;20060;-78
2022/05/27 01:07:54;;;;;;;0.00;0.00;;;13.20;99.90;;;;;;5036781;28;20049;-79
2022/05/27 01:10:20;;;;;;;0.00;0.00;;;13.20;99.90;;;;;;5020897;28;20138;-78
2022/05/27 01:12:51;;;;;;;0.00;0.00;;;13.10;99.90;;;;;;5036797;28;20053;-78
2022/05/27 01:15:38;;;;;;;0.00;0.00;;;13.20;99.90;;;;;;5037066;28;20045;-78
2022/05/27 01:22:00;;;;;;;0.00;0.00;;;13.20;99.90;;;;;;4977482;28;20105;-78
2022/05/27 01:25:09;;;;;;;0.00;0.00;;;13.20;99.90;;;;;;4993910;28;20080;-78
2022/05/27 01:27:43;;;;;;;4.22;0.10;;;13.30;99.90;;;;;;4977490;28;20053;-79
2022/05/27 01:30:18;;;;;;;0.00;0.00;;;13.30;99.90;;;;;;4993637;28;20050;-79
2022/05/27 01:33:00;;;;;;;0.00;0.00;;;13.30;99.90;;;;;;4993660;28;20608;-78
2022/05/27 01:35:34;;;;;;;0.00;0.00;;;13.30;99.90;;;;;;4976918;28;20571;-79
2022/05/27 01:38:17;;;;;;;0.00;0.00;;;13.30;99.90;;;;;;4996841;28;20060;-79
2022/05/27 01:40:53;;;;;;;0.00;0.00;;;13.30;99.90;;;;;;4996873;28;20053;-78
2022/05/27 01:43:46;;;;;;;0.00;0.00;;;13.30;99.90;;;;;;4996895;28;20041;-79
2022/05/27 01:46:26;;;;;;;0.00;0.00;;;13.30;99.90;;;;;;4996784;28;20075;-79
2022/05/27 01:49:39;;;;;;;0.00;0.00;;;13.30;99.90;;;;;;4996737;28;20058;-79
2022/05/27 01:52:08;;;;;;;8.63;0.57;;;13.20;99.90;;;;;;4922795;29;20059;-79
2022/05/27 01:54:58;;;;;;;0.03;0.00;;;13.30;99.90;;;;;;4938443;29;20051;-78
2022/05/27 01:57:52;;;;;;;0.00;0.00;;;13.30;99.90;;;;;;4956134;28;20077;-78
2022/05/27 02:00:24;;;;;;;0.57;0.05;;;13.20;99.90;;;;;;4919522;29;20056;-78
2022/05/27 02:03:04;;;;;;;0.08;0.03;;;13.30;99.90;;;;;;4919415;29;20060;-78
2022/05/27 02:05:30;;;;;;;0.13;0.13;;;13.30;99.90;;;;;;4919513;29;20055;-79
2022/05/27 02:08:18;;;;;;;0.35;0.30;;;13.20;99.90;;;;;;4919302;29;20055;-79
2022/05/27 02:11:05;;;;;;;0.10;0.10;;;13.20;99.90;;;;;;4919783;29;20055;-79
2022/05/27 02:13:54;;;;;;;0.00;0.00;;;13.10;99.90;;;;;;4919023;29;20057;-79
2022/05/27 02:16:52;;;;;;;0.17;0.10;;;13.10;99.90;;;;;;4919120;29;20142;-79
2022/05/27 02:19:18;;;;;;;0.00;0.00;;;13.10;99.90;;;;;;4919755;29;20047;-79
2022/05/27 02:21:53;;;;;;;0.10;0.00;;;13.00;99.90;;;;;;4919205;29;20054;-79
2022/05/27 02:24:42;;;;;;;0.98;0.38;;;13.00;99.90;;;;;;4919446;29;20607;-79
2022/05/27 02:27:20;;;;;;;7.13;0.90;;;13.00;99.90;;;;;;4903160;29;20075;-79
2022/05/27 02:29:51;;;;;;;0.00;0.00;;;12.90;99.90;;;;;;4922089;29;20047;-78
2022/05/27 02:32:24;;;;;;;0.35;0.00;;;12.90;99.90;;;;;;4938401;29;20059;-79
2022/05/27 02:35:07;;;;;;;0.35;0.35;;;12.90;99.90;;;;;;4954305;29;20050;-79
2022/05/27 02:37:40;;;;;;;0.00;0.00;;;12.90;99.90;;;;;;5005878;28;20153;-78
2022/05/27 02:40:12;;;;;;;0.00;0.00;;;12.90;99.90;;;;;;5036260;28;20049;-79
2022/05/27 02:42:52;;;;;;;0.00;0.00;;;12.90;99.90;;;;;;5053354;28;20044;-79
2022/05/27 02:45:44;;;;;;;0.00;0.00;;;12.90;99.90;;;;;;5053112;28;20045;-78
2022/05/27 02:48:44;;;;;;;0.00;0.00;;;12.80;99.90;;;;;;5052660;28;20090;-78
2022/05/27 02:51:23;;;;;;;0.00;0.00;;;12.80;99.90;;;;;;5036386;28;20110;-78
2022/05/27 02:54:04;;;;;;;0.00;0.00;;;12.80;99.90;;;;;;5036388;28;20048;-78
2022/05/27 02:56:35;;;;;;;0.00;0.00;;;12.80;99.90;;;;;;5035571;28;20563;-78
2022/05/27 02:59:02;;;;;;;0.00;0.00;;;12.70;99.90;;;;;;5052767;28;20044;-79
2022/05/27 03:01:27;;;;;;;0.80;0.32;;;12.80;99.90;;;;;;5035697;28;20041;-78
2022/05/27 03:03:53;;;;;;;0.00;0.00;;;12.70;99.90;;;;;;5052193;28;20098;-78
2022/05/27 03:06:46;;;;;;;0.00;0.00;;;12.70;99.90;;;;;;5035800;28;20049;-78
2022/05/27 03:09:30;;;;;;;0.00;0.00;;;12.70;99.90;;;;;;5036909;28;20412;-79
2022/05/27 03:12:05;;;;;;;0.57;0.38;;;12.60;99.90;;;;;;5053006;28;20045;-78
2022/05/27 03:14:43;;;;;;;0.00;0.00;;;12.60;99.90;;;;;;5052775;28;20457;-78
2022/05/27 03:17:16;;;;;;;0.00;0.00;;;12.60;99.90;;;;;;5035518;28;20133;-79
2022/05/27 03:19:56;;;;;;;0.00;0.00;;;12.50;99.90;;;;;;5052648;28;20048;-79
2022/05/27 03:22:48;;;;;;;0.20;0.00;;;12.50;99.90;;;;;;5052456;28;20517;-79
2022/05/27 03:25:19;;;;;;;0.00;0.00;;;12.50;99.90;;;;;;5053352;28;20508;-79
2022/05/27 03:28:10;;;;;;;0.00;0.00;;;12.50;99.90;;;;;;5039671;28;20049;-78
2022/05/27 03:30:56;;;;;;;0.30;0.00;;;12.50;99.90;;;;;;5039835;28;20053;-78
2022/05/27 03:33:31;;;;;;;7.20;0.80;;;12.50;99.90;;;;;;5056394;28;20392;-79
2022/05/27 03:36:15;;;;;;;0.00;0.00;;;12.50;99.90;;;;;;5039273;28;20056;-78
2022/05/27 03:39:18;;;;;;;0.00;0.00;;;12.50;99.90;;;;;;5056312;28;20041;-79
2022/05/27 03:41:48;;;;;;;0.00;0.00;;;12.50;99.90;;;;;;5039410;28;20052;-79
2022/05/27 03:44:18;;;;;;;0.00;0.00;;;12.60;99.90;;;;;;5055703;28;20063;-78
2022/05/27 03:46:44;;;;;;;0.00;0.00;;;12.60;99.90;;;;;;5055999;28;20118;-78
2022/05/27 03:49:10;;;;;;;0.00;0.00;;;12.60;99.90;;;;;;5055936;28;20110;-78
2022/05/27 03:51:48;;;;;;;0.00;0.00;;;12.60;99.90;;;;;;5056302;28;20048;-78
2022/05/27 03:54:14;;;;;;;0.20;0.20;;;12.60;99.90;;;;;;5039347;28;20056;-78
2022/05/27 03:56:41;;;;;;;0.00;0.00;;;12.60;99.90;;;;;;5055507;28;20087;-78
2022/05/27 03:59:10;;;;;;;0.38;0.32;;;12.70;99.90;;;;;;5039054;28;20049;-78
2022/05/27 04:01:39;;;;;;;0.00;0.00;;;12.70;99.90;;;;;;5055852;28;20504;-78
2022/05/27 04:04:07;;;;;;;0.00;0.00;;;12.70;99.90;;;;;;5039387;28;20068;-78
2022/05/27 04:06:33;;;;;;;0.00;0.00;;;12.70;99.90;;;;;;5055581;28;20087;-78
2022/05/27 04:08:59;;;;;;;0.00;0.00;;;12.80;99.90;;;;;;5055593;28;20120;-78
2022/05/27 04:11:27;;;;;;;0.10;0.10;;;12.70;99.90;;;;;;5038995;28;20103;-78
2022/05/27 04:13:52;;;;;;;0.00;0.00;;;12.80;99.90;;;;;;5038810;28;20053;-78
2022/05/27 04:16:18;;;;;;;0.00;0.00;;;12.80;99.90;;;;;;5055202;28;20072;-78
2022/05/27 04:18:44;;;;;;;0.00;0.00;;;12.70;99.90;;;;;;5038777;28;20080;-78
2022/05/27 04:21:10;;;;;;;0.00;0.00;;;12.70;99.90;;;;;;5055351;28;20045;-78
2022/05/27 04:23:36;;;;;;;0.13;0.13;;;12.70;99.90;;;;;;5055447;28;20137;-78
2022/05/27 04:26:02;;;;;;;0.00;0.00;;;12.80;99.90;;;;;;5038592;28;20568;-78
2022/05/27 04:28:28;;;;;;;0.70;0.47;;;12.70;99.90;;;;;;5055225;28;20182;-78
2022/05/27 04:30:53;;;;;;;0.00;0.00;;;12.70;99.90;;;;;;5038597;28;20147;-78
2022/05/27 04:33:19;;;;;;;0.90;0.52;;;12.70;99.90;;;;;;5055238;28;20076;-78
2022/05/27 04:35:46;;;;;;;0.00;0.00;;;12.80;99.90;;;;;;5055668;28;20076;-78
2022/05/27 04:38:12;;;;;;;0.00;0.00;;;12.80;99.90;;;;;;5037950;28;20053;-77
2022/05/27 04:40:38;;;;;;;0.05;0.05;;;12.80;99.90;;;;;;5054848;28;20520;-77
2022/05/27 04:43:05;;;;;;;0.00;0.00;;;12.80;99.90;;;;;;5038821;28;20120;-77
2022/05/27 04:45:31;;;;;;;0.03;0.03;;;12.80;99.90;;;;;;5054843;28;20210;-78
2022/05/27 04:47:57;;;;;;;1.08;0.30;;;12.80;99.90;;;;;;5054958;28;20131;-77
2022/05/27 04:50:23;;;;;;;0.10;0.05;;;12.90;99.90;;;;;;5054876;28;20045;-78
2022/05/27 04:52:49;;;;;;;0.00;0.00;;;12.90;99.90;;;;;;5054807;28;20137;-78
2022/05/27 04:55:16;;;;;;;0.20;0.20;;;12.90;99.90;;;;;;5054629;28;20080;-78
2022/05/27 04:57:50;;;;;;;0.10;0.03;;;12.90;99.90;;;;;;5054110;28;20053;-78
2022/05/27 05:00:28;;;;;;;0.38;0.20;;;12.90;99.90;;;;;;5037772;28;20139;-78
2022/05/27 05:02:54;;;;;;;0.00;0.00;;;12.90;99.90;;;;;;5053432;28;20044;-78
2022/05/27 05:05:22;;;;;;;0.00;0.00;;;12.90;99.90;;;;;;5036606;28;20080;-77
2022/05/27 05:07:51;;;;;;;0.00;0.00;;;12.90;99.90;;;;;;5054347;28;20370;-78
2022/05/27 05:10:20;;;;;;;0.00;0.00;;;12.90;99.90;;;;;;5055048;28;20060;-77
2022/05/27 05:12:46;;;;;;;0.28;0.10;;;12.90;99.90;;;;;;5054482;28;20044;-78
2022/05/27 05:15:13;;;;;;;4.40;0.80;;;12.90;99.90;;;;;;5057789;28;20448;-78
2022/05/27 05:17:39;;;;;;;0.20;0.00;;;12.90;99.90;;;;;;5046003;28;20404;-78
2022/05/27 05:20:07;;;;;;;0.00;0.00;;;12.90;99.90;;;;;;5054091;28;20048;-78
2022/05/27 05:22:33;;;;;;;21.02;1.23;;;12.90;99.90;;;;;;5053997;28;20556;-78
2022/05/27 05:24:58;;;;;;;0.00;0.00;;;13.00;99.90;;;;;;5037550;28;20087;-78
2022/05/27 05:27:26;;;;;;;0.52;0.22;;;13.10;99.90;;;;;;5037628;28;20072;-78
2022/05/27 05:29:53;;;;;;;0.00;0.00;;;13.10;99.90;;;;;;5054388;28;20060;-79
2022/05/27 05:32:20;;;;;;;0.20;0.20;;;13.20;99.90;;;;;;5053885;28;20428;-79
2022/05/27 05:34:46;;;;;;;0.00;0.00;;;13.30;99.90;;;;;;5037332;28;20511;-79
2022/05/27 05:37:12;;;;;;;0.00;0.00;;;13.30;99.90;;;;;;5053796;28;20085;-79
2022/05/27 05:39:37;;;;;;;0.00;0.00;;;13.40;99.90;;;;;;5037578;28;20052;-79
2022/05/27 05:42:06;;;;;;;0.65;0.63;;;13.40;99.90;;;;;;5053988;28;20135;-79
2022/05/27 05:44:33;;;;;;;0.00;0.00;;;13.40;99.90;;;;;;5053922;28;20083;-79
2022/05/27 05:46:59;;;;;;;0.00;0.00;;;13.50;99.90;;;;;;5053854;28;20041;-79
2022/05/27 05:49:25;;;;;;;0.28;0.28;;;13.50;99.90;;;;;;5052812;28;20045;-79
2022/05/27 05:51:52;;;;;;;0.00;0.00;;;13.50;99.90;;;;;;5053663;28;20392;-79
2022/05/27 05:54:21;;;;;;;0.20;0.20;;;13.60;99.90;;;;;;5053815;28;20045;-79
2022/05/27 05:56:49;;;;;;;0.00;0.00;;;13.50;99.90;;;;;;5053000;28;20071;-78
2022/05/27 05:59:16;;;;;;;0.00;0.00;;;13.60;99.90;;;;;;5053523;28;20095;-78
2022/05/27 06:01:42;;;;;;;0.20;0.20;;;13.60;99.90;;;;;;5036967;28;20148;-79
2022/05/27 06:04:08;;;;;;;1.23;0.05;;;13.60;99.90;;;;;;5053750;28;20045;-79
2022/05/27 06:06:34;;;;;;;0.00;0.00;;;13.60;99.90;;;;;;5036608;28;20115;-78
2022/05/27 06:08:59;;;;;;;0.88;0.28;;;13.70;99.90;;;;;;5053336;28;20436;-79
2022/05/27 06:11:25;;;;;;;0.00;0.00;;;13.70;99.90;;;;;;5053309;28;20049;-79
2022/05/27 06:13:51;;;;;;;0.03;0.03;;;13.70;99.90;;;;;;5053340;28;20090;-79
2022/05/27 06:16:16;;;;;;;0.20;0.20;;;13.60;99.90;;;;;;5053015;28;20090;-79
2022/05/27 06:18:42;;;;;;;0.20;0.20;;;13.60;99.90;;;;;;5052956;28;20052;-79
2022/05/27 06:21:08;;;;;;;0.00;0.00;;;13.70;99.90;;;;;;5053441;28;20128;-79
2022/05/27 06:23:34;;;;;;;0.00;0.00;;;13.80;99.90;;;;;;5052950;28;20048;-80
2022/05/27 06:26:05;;;;;;;0.00;0.00;;;13.80;99.90;;;;;;5036238;28;20060;-79
2022/05/27 06:36:44;;;;;;;4.57;0.80;;;13.80;99.90;;;;;;5052877;28;20072;-79
2022/05/27 06:39:10;;;;;;;0.13;0.13;;;13.80;99.90;;;;;;5052996;28;20053;-79
2022/05/27 06:41:36;;;;;;;0.00;0.00;;;13.80;99.90;;;;;;5052631;28;20048;-80
2022/05/27 06:44:03;;;;;;;0.00;0.00;;;13.90;99.90;;;;;;5052854;28;20374;-80
2022/05/27 06:46:30;;;;;;;0.00;0.00;;;13.80;99.90;;;;;;5052735;28;20564;-80
2022/05/27 06:48:56;;;;;;;0.32;0.32;;;13.80;99.90;;;;;;5052962;28;20049;-80
2022/05/27 06:51:22;;;;;;;0.00;0.00;;;13.90;99.90;;;;;;5035950;28;20071;-79
2022/05/27 06:53:48;;;;;;;0.00;0.00;;;13.90;99.90;;;;;;5036585;28;20064;-79
2022/05/27 06:56:14;;;;;;;0.00;0.00;;;13.90;99.90;;;;;;5052455;28;20485;-79
2022/05/27 06:58:40;;;;;;;0.00;0.00;;;14.00;99.90;;;;;;5036355;28;20049;-79
2022/05/27 07:01:07;;;;;;;0.10;0.00;;;14.00;99.90;;;;;;5057039;28;20047;-80
2022/05/27 07:03:34;;;;;;;0.10;0.10;;;14.10;99.90;;;;;;5042749;28;20048;-80
2022/05/27 07:06:00;;;;;;;0.10;0.00;;;14.20;99.90;;;;;;5042230;28;20053;-80
2022/05/27 07:08:26;;;;;;;7.03;0.73;;;14.20;99.90;;;;;;5059016;28;20055;-80
2022/05/27 07:10:51;;;;;;;0.10;0.10;;;14.30;99.90;;;;;;5059516;28;20128;-79
2022/05/27 07:13:18;;;;;;;0.00;0.00;;;14.30;99.90;;;;;;5064764;28;20087;-80
2022/05/27 07:15:44;;;;;;;0.00;0.00;;;14.30;99.90;;;;;;5079235;28;20052;-80
2022/05/27 07:18:09;;;;;;;0.00;0.00;;;14.40;99.90;;;;;;5062550;28;20066;-80
2022/05/27 07:20:36;;;;;;;0.00;0.00;;;14.50;99.90;;;;;;5079287;28;20047;-80
2022/05/27 07:23:04;;;;;;;0.00;0.00;;;14.60;99.90;;;;;;5079270;28;20098;-80
2022/05/27 07:25:35;;;;;;;0.30;0.20;;;14.70;99.90;;;;;;5078907;28;20485;-80
2022/05/27 07:28:06;;;;;;;0.00;0.00;;;14.60;99.90;;;;;;5078927;28;20051;-80
2022/05/27 07:30:35;;;;;;;0.08;0.00;;;14.70;99.90;;;;;;5062410;28;20057;-81
2022/05/27 07:33:01;;;;;;;0.25;0.17;;;14.70;99.90;;;;;;5079397;28;20099;-80
2022/05/27 07:35:27;;;;;;;0.73;0.52;;;14.80;99.90;;;;;;5062367;28;20056;-80
2022/05/27 07:37:53;;;;;;;0.10;0.10;;;14.80;99.90;;;;;;5078703;28;20044;-80
2022/05/27 07:40:19;;;;;;;0.00;0.00;;;14.80;99.90;;;;;;5062515;28;20438;-80
2022/05/27 07:42:45;;;;;;;0.08;0.08;;;14.80;99.90;;;;;;5079056;28;20395;-80
2022/05/27 07:45:12;;;;;;;0.10;0.10;;;14.80;99.90;;;;;;5062068;28;20044;-81
2022/05/27 07:47:38;;;;;;;0.00;0.00;;;14.90;99.90;;;;;;5078984;28;20059;-81
2022/05/27 07:50:05;;;;;;;0.08;0.08;;;15.00;99.90;;;;;;5078306;28;20454;-80
2022/05/27 07:52:34;;;;;;;0.00;0.00;;;14.80;99.90;;;;;;5078150;28;20485;-81
2022/05/27 07:55:03;;;;;;;0.10;0.00;;;14.70;99.90;;;;;;5079703;28;20052;-81
2022/05/27 07:57:29;;;;;;;0.00;0.00;;;14.60;99.90;;;;;;5078572;28;20056;-81
2022/05/27 07:59:54;;;;;;;0.05;0.00;;;14.70;99.90;;;;;;5079070;28;20106;-81
2022/05/27 08:02:24;;;;;;;1.50;0.55;;;14.80;99.90;;;;;;5078901;28;20045;-81
2022/05/27 08:04:51;;;;;;;0.00;0.00;;;14.90;99.90;;;;;;5062030;28;20089;-81
2022/05/27 08:07:17;;;;;;;0.10;0.10;;;15.00;99.90;;;;;;5078256;28;20056;-81
2022/05/27 08:09:42;;;;;;;0.00;0.00;;;15.10;99.90;;;;;;5077983;28;20052;-80
2022/05/27 08:12:09;;;;;;;3.03;0.55;;;15.20;99.90;;;;;;5076110;28;20045;-81
2022/05/27 08:14:34;;;;;;;0.00;0.00;;;15.30;99.90;;;;;;5067029;28;20048;-81
2022/05/27 08:17:01;;;;;;;0.00;0.00;;;15.40;99.90;;;;;;5038604;28;20049;-80
2022/05/27 08:19:27;;;;;;;0.00;0.00;;;15.30;99.90;;;;;;5038854;28;20401;-81
2022/05/27 08:21:53;;;;;;;0.00;0.00;;;15.40;99.90;;;;;;5038825;28;20192;-81
2022/05/27 08:24:18;;;;;;;0.10;0.00;;;15.30;99.90;;;;;;5055633;28;20084;-81
2022/05/27 08:26:44;;;;;;;0.05;0.05;;;15.30;99.90;;;;;;5046856;28;20439;-80
2022/05/27 08:29:11;;;;;;;0.35;0.22;;;15.10;99.90;;;;;;5063306;28;20060;-81
2022/05/27 08:31:37;;;;;;;0.00;0.00;;;15.00;99.90;;;;;;5064782;28;20091;-80
2022/05/27 08:39:37;;;;;;;0.65;0.15;;;15.20;99.90;;;;;;5045752;28;20041;-81
2022/05/27 08:42:37;;;;;;;0.00;0.00;;;15.20;99.90;;;;;;5045683;28;20170;-80
2022/05/27 08:45:19;;;;;;;0.00;0.00;;;15.10;99.90;;;;;;5049011;28;20089;-80
2022/05/27 08:47:56;;;;;;;0.20;0.20;;;15.10;99.90;;;;;;5028843;28;20514;-81
2022/05/27 08:50:40;;;;;;;1.50;0.65;;;15.20;99.00;;;;;;5047962;28;20056;-81
2022/05/27 08:53:29;;;;;;;0.00;0.00;;;15.30;94.90;;;;;;5046788;28;20080;-80
2022/05/27 09:01:51;;;;;;;0.00;0.00;;;15.50;99.90;;;;;;5048073;28;20393;-80
2022/05/27 09:04:35;;;;;;;0.55;0.17;;;15.70;99.50;;;;;;5028308;28;20578;-80
2022/05/27 09:07:39;;;;;;;0.93;0.30;;;15.90;99.90;;;;;;5020321;28;20513;-80
2022/05/27 09:10:09;;;;;;;1.20;0.65;;;16.00;99.90;;;;;;5036901;28;20292;-80
2022/05/27 09:12:46;;;;;;;0.65;0.45;;;16.10;98.70;;;;;;5020485;28;20084;-81
2022/05/27 09:15:32;;;;;;;0.05;0.05;;;16.00;97.00;;;;;;5054582;28;20228;-81
2022/05/27 09:18:40;;;;;;;0.00;0.00;;;16.20;98.20;;;;;;5053818;28;20057;-80
2022/05/27 09:21:30;;;;;;;0.00;0.00;;;16.40;99.70;;;;;;5054291;28;20048;-80
2022/05/27 09:24:47;;;;;;;0.00;0.00;;;16.40;98.80;;;;;;5054196;28;20175;-81
2022/05/27 09:27:20;;;;;;;0.00;0.00;;;16.30;97.50;;;;;;4997211;28;20142;-80
2022/05/27 09:30:07;;;;;;;0.08;0.08;;;16.10;98.20;;;;;;4980827;28;20057;-80
2022/05/27 09:32:38;;;;;;;3.08;0.35;;;15.90;98.80;;;;;;4996961;28;20125;-80
2022/05/27 09:35:10;;;;;;;0.00;0.00;;;15.80;99.00;;;;;;5000477;28;20105;-80
2022/05/27 09:37:42;;;;;;;0.00;0.00;;;15.90;99.40;;;;;;5016560;28;20201;-80
2022/05/27 09:40:15;;;;;;;0.00;0.00;;;16.10;98.60;;;;;;5016955;28;20045;-80
2022/05/27 09:42:43;;;;;;;0.05;0.00;;;16.20;97.20;;;;;;5016581;28;20524;-80
2022/05/27 09:45:11;;;;;;;0.00;0.00;;;16.30;95.50;;;;;;5012801;28;20046;-80
2022/05/27 09:47:38;;;;;;;0.32;0.15;;;16.40;97.60;;;;;;5011636;28;20061;-80
2022/05/27 09:50:23;;;;;;;0.75;0.45;;;16.50;98.20;;;;;;5032868;28;20082;-80
2022/05/27 09:52:53;;;;;;;0.10;0.10;;;16.60;98.40;;;;;;5016359;28;20591;-80
2022/05/27 09:55:25;;;;;;;0.47;0.17;;;16.80;95.80;;;;;;5016902;28;20180;-80
2022/05/27 09:57:55;;;;;;;0.10;0.10;;;17.00;97.70;;;;;;5015673;28;20452;-80
2022/05/27 10:01:17;;;;;;;0.00;0.00;;;17.10;97.60;;;;;;5003327;28;20057;-81
2022/05/27 10:03:43;;;;;;;0.00;0.00;;;17.10;96.00;;;;;;5000130;28;20505;-80
2022/05/27 10:06:17;;;;;;;0.10;0.10;;;17.20;97.80;;;;;;4999585;28;20051;-80
2022/05/27 10:08:54;;;;;;;0.00;0.00;;;17.20;96.50;;;;;;4999826;28;20068;-80
2022/05/27 10:11:31;;;;;;;0.55;0.25;;;17.00;96.70;;;;;;5016365;28;20493;-80
2022/05/27 10:14:17;;;;;;;0.00;0.00;;;16.70;96.60;;;;;;5032578;28;20413;-80
2022/05/27 10:17:00;;;;;;;0.52;0.30;;;17.00;97.70;;;;;;4999905;28;20115;-80
2022/05/27 10:19:27;;;;;;;0.88;0.22;;;17.20;96.40;;;;;;4999513;28;20057;-80
2022/05/27 10:21:58;;;;;;;0.00;0.00;;;17.40;97.10;;;;;;4999415;28;20061;-81
2022/05/27 10:24:28;;;;;;;0.00;0.00;;;17.30;96.20;;;;;;5015916;28;20103;-80
2022/05/27 10:27:21;;;;;;;0.00;0.00;;;17.10;96.00;;;;;;4998908;28;20528;-80
2022/05/27 10:29:52;;;;;;;3.40;0.65;;;17.00;96.40;;;;;;5015670;28;20148;-80
2022/05/27 10:32:35;;;;;;;0.00;0.00;;;16.80;96.30;;;;;;4997493;28;20061;-80
2022/05/27 10:35:05;;;;;;;0.00;0.00;;;16.70;95.70;;;;;;5051913;28;20052;-79
2022/05/27 10:37:50;;;;;;;0.00;0.00;;;16.90;97.40;;;;;;5045026;28;20127;-80
2022/05/27 10:40:16;;;;;;;0.10;0.03;;;16.70;95.20;;;;;;5054631;28;20129;-81
2022/05/27 10:42:47;;;;;;;1.98;0.45;;;16.70;95.50;;;;;;5072923;28;20060;-80
2022/05/27 10:45:22;;;;;;;0.00;0.00;;;16.70;95.50;;;;;;5072912;28;20130;-80
2022/05/27 10:48:10;;;;;;;0.00;0.00;;;16.80;94.00;;;;;;5056372;28;20048;-80
2022/05/27 10:51:00;;;;;;;0.00;0.00;;;16.70;96.00;;;;;;5065199;28;20463;-80
2022/05/27 10:53:56;;;;;;;0.00;0.00;;;16.40;95.50;;;;;;5059474;28;20045;-80
2022/05/27 11:03:02;;;;;;;0.00;0.00;;;15.70;95.80;;;;;;5009276;28;20080;-80
2022/05/27 11:05:34;;;;;;;0.00;0.00;;;15.60;95.80;;;;;;5005878;28;20049;-79
2022/05/27 11:08:22;;;;;;;0.00;0.00;;;15.60;96.70;;;;;;5003587;28;20053;-80
2022/05/27 11:10:54;;;;;;;0.00;0.00;;;16.10;98.20;;;;;;5006079;28;20045;-80
2022/05/27 11:16:22;;;;;;;0.00;0.00;;;16.70;93.90;;;;;;4937597;29;20051;-79
2022/05/27 11:19:01;;;;;;;0.00;0.00;;;16.70;96.00;;;;;;4921276;29;20134;-79
2022/05/27 11:21:53;;;;;;;0.00;0.00;;;16.70;96.50;;;;;;4938135;29;20115;-79
2022/05/27 11:24:37;;;;;;;0.08;0.05;;;16.80;97.80;;;;;;4937710;29;20055;-79
2022/05/27 11:27:24;;;;;;;1.17;1.08;;;17.10;95.40;;;;;;4938101;29;20146;-79
2022/05/27 11:30:06;;;;;;;0.00;0.00;;;17.30;94.90;;;;;;4921926;29;20061;-80
2022/05/27 11:32:56;;;;;;;2.13;0.98;;;17.40;95.50;;;;;;4921711;29;20063;-79
2022/05/27 11:36:10;;;;;;;0.30;0.30;;;17.30;92.40;;;;;;4921818;28;20064;-79
2022/05/27 11:38:56;;;;;;;0.00;0.00;;;17.30;93.40;;;;;;4935838;29;20122;-79
2022/05/27 11:41:43;;;;;;;0.00;0.00;;;17.50;95.30;;;;;;4937567;29;20062;-80
2022/05/27 11:44:43;;;;;;;0.20;0.20;;;17.90;95.60;;;;;;4937966;29;20043;-79
2022/05/27 11:47:23;;;;;;;0.00;0.00;;;18.10;93.90;;;;;;4865972;29;20103;-79
2022/05/27 11:50:12;;;;;;;0.00;0.00;;;18.20;92.20;;;;;;4884409;29;20144;-79
2022/05/27 11:53:03;;;;;;;0.00;0.00;;;17.80;90.70;;;;;;4891426;28;20519;-79
2022/05/27 11:56:05;;;;;;;0.00;0.00;;;17.40;91.10;;;;;;4960571;28;20043;-79
2022/05/27 11:59:05;;;;;;;0.43;0.43;;;17.60;94.20;;;;;;4944082;28;20055;-80
2022/05/27 12:01:55;;;;;;;0.45;0.32;;;18.00;94.20;;;;;;4943538;28;20550;-80
2022/05/27 12:04:43;;;;;;;0.20;0.20;;;18.00;93.00;;;;;;4960101;28;20099;-80
2022/05/27 12:07:32;;;;;;;0.00;0.00;;;17.60;90.10;;;;;;4944139;28;20051;-80
2022/05/27 12:10:04;;;;;;;0.00;0.00;;;17.60;92.40;;;;;;4976203;28;20067;-80
2022/05/27 12:12:34;;;;;;;0.00;0.00;;;17.80;93.70;;;;;;4943762;28;20133;-79
2022/05/27 12:15:09;;;;;;;0.10;0.10;;;17.80;93.20;;;;;;4944430;28;20057;-80
2022/05/27 12:17:44;;;;;;;0.00;0.00;;;17.60;91.70;;;;;;4943844;28;20062;-80
2022/05/27 12:20:15;;;;;;;1.38;0.35;;;17.40;92.00;;;;;;4982571;28;20053;-81
2022/05/27 12:22:41;;;;;;;0.00;0.00;;;17.50;93.40;;;;;;4984736;28;20095;-79
2022/05/27 12:25:22;;;;;;;0.20;0.20;;;17.50;92.20;;;;;;5053609;28;20048;-80
2022/05/27 12:27:49;;;;;;;0.85;0.65;;;17.40;93.40;;;;;;5054461;28;20187;-81
2022/05/27 12:30:18;;;;;;;0.00;0.00;;;17.30;92.20;;;;;;5036627;28;20550;-80
2022/05/27 12:32:47;;;;;;;0.55;0.25;;;17.20;93.40;;;;;;5053841;28;20044;-81
2022/05/27 12:35:19;;;;;;;0.20;0.20;;;17.00;94.30;;;;;;5053489;28;20048;-81
2022/05/27 12:37:56;;;;;;;0.00;0.00;;;17.00;95.40;;;;;;5053271;28;20081;-80
2022/05/27 12:40:39;;;;;;;0.00;0.00;;;17.20;96.00;;;;;;5053278;28;20056;-79
2022/05/27 12:43:22;;;;;;;0.00;0.00;;;17.50;94.60;;;;;;5037111;28;20061;-80
2022/05/27 12:45:54;;;;;;;0.00;0.00;;;17.30;91.40;;;;;;5053650;28;20417;-81
2022/05/27 12:48:38;;;;;;;0.00;0.00;;;17.10;91.00;;;;;;5036635;28;20051;-80
2022/05/27 12:51:07;;;;;;;0.00;0.00;;;17.60;94.10;;;;;;5036737;28;20092;-79
2022/05/27 12:53:38;;;;;;;0.32;0.20;;;17.90;91.90;;;;;;5053613;28;20092;-79
2022/05/27 13:02:33;;;;;;;0.00;0.00;;;18.30;91.30;;;;;;5015900;28;20131;-79
2022/05/27 13:05:04;;;;;;;2.50;0.35;;;17.90;89.50;;;;;;5015171;28;20072;-79
2022/05/27 13:07:33;;;;;;;0.85;0.30;;;17.70;91.10;;;;;;5015642;28;20049;-79
2022/05/27 13:10:18;;;;;;;0.52;0.20;;;17.60;91.90;;;;;;5013963;28;20460;-80
2022/05/27 13:12:47;;;;;;;0.25;0.25;;;17.30;90.90;;;;;;5015058;28;20049;-80
2022/05/27 13:15:28;;;;;;;0.00;0.00;;;17.20;92.20;;;;;;5014931;28;20111;-79
2022/05/27 13:18:09;;;;;;;4.68;0.88;;;17.10;90.70;;;;;;5014978;28;20440;-80
2022/05/27 13:21:05;;;;;;;0.00;0.00;;;17.20;91.90;;;;;;5014497;28;20089;-78
2022/05/27 13:23:32;;;;;;;0.35;0.35;;;17.10;93.80;;;;;;5000180;28;20136;-80
2022/05/27 13:26:27;;;;;;;0.00;0.00;;;16.80;94.00;;;;;;4995312;28;20049;-80
2022/05/27 13:28:57;;;;;;;3.83;0.73;;;17.00;95.00;;;;;;4955433;28;20065;-79
2022/05/27 13:31:44;;;;;;;0.00;0.00;;;17.30;97.00;;;;;;4956403;28;20070;-79
2022/05/27 13:34:43;;;;;;;0.15;0.15;;;17.40;95.60;;;;;;4984499;28;20426;-79
2022/05/27 13:37:30;;;;;;;0.03;0.00;;;17.60;93.70;;;;;;4995284;28;20140;-79
2022/05/27 13:40:03;;;;;;;0.00;0.00;;;17.80;94.70;;;;;;4978741;28;20736;-80
2022/05/27 13:42:33;;;;;;;0.32;0.20;;;17.90;94.00;;;;;;4995260;28;20090;-80
2022/05/27 13:45:12;;;;;;;0.98;0.50;;;17.80;93.50;;;;;;4978536;28;20116;-80
2022/05/27 13:47:44;;;;;;;0.00;0.00;;;17.70;93.70;;;;;;4995007;28;20441;-80
2022/05/27 13:50:33;;;;;;;0.00;0.00;;;17.40;94.20;;;;;;4994444;28;20429;-80
2022/05/27 13:53:27;;;;;;;0.00;0.00;;;17.50;95.90;;;;;;4978398;28;20391;-80
2022/05/27 13:56:04;;;;;;;0.15;0.08;;;17.70;95.70;;;;;;4995523;28;20100;-80
2022/05/27 13:58:31;;;;;;;0.45;0.45;;;17.70;93.30;;;;;;4993729;28;20061;-80
2022/05/27 14:01:03;;;;;;;0.10;0.05;;;17.80;92.40;;;;;;4977961;28;20058;-79
2022/05/27 14:03:41;;;;;;;0.10;0.00;;;17.90;92.60;;;;;;4994672;28;20049;-79